sensor_id;sensor_type;location;lat;lon;timestamp;temperature;humidity
46231;DHT22;31949;51.404;-0.038;2023-03-12T00:00:53;7.20;99.90
46231;DHT22;31949;51.404;-0.038;2023-03-12T00:03:20;7.20;99.90
46231;DHT22;31949;51.404;-0.038;2023-03-12T00:05:48;7.20;99.90
46231;DHT22;31949;51.404;-0.038;2023-03-12T00:08:15;7.30;99.90
46231;DHT22;31949;51.404;-0.038;2023-03-12T00:10:42;7.30;99.90
46231;DHT22;31949;51.404;-0.038;2023-03-12T00:13:09;7.40;99.90
46231;DHT22;31949;51.404;-0.038;2023-03-12T00:15:37;7.50;99.90
46231;DHT22;31949;51.404;-0.038;2023-03-12T00:18:05;7.50;99.90
46231;DHT22;31949;51.404;-0.038;2023-03-12T00:20:32;7.60;99.90
46231;DHT22;31949;51.404;-0.038;2023-03-12T00:22:59;7.60;99.90
46231;DHT22;31949;51.404;-0.038;2023-03-12T00:25:27;7.70;99.90
46231;DHT22;31949;51.404;-0.038;2023-03-12T00:27:54;7.60;99.90
46231;DHT22;31949;51.404;-0.038;2023-03-12T00:30:21;7.70;99.90
46231;DHT22;31949;51.404;-0.038;2023-03-12T00:32:48;7.70;99.90
46231;DHT22;31949;51.404;-0.038;2023-03-12T00:35:16;7.70;99.90
46231;DHT22;31949;51.404;-0.038;2023-03-12T00:37:44;7.80;99.90
46231;DHT22;31949;51.404;-0.038;2023-03-12T00:40:12;7.80;99.90
46231;DHT22;31949;51.404;-0.038;2023-03-12T00:42:39;7.80;99.90
46231;DHT22;31949;51.404;-0.038;2023-03-12T00:45:07;7.80;99.90
46231;DHT22;31949;51.404;-0.038;2023-03-12T00:47:34;7.80;99.90
46231;DHT22;31949;51.404;-0.038;2023-03-12T00:50:01;7.80;99.90
46231;DHT22;31949;51.404;-0.038;2023-03-12T00:52:29;7.80;99.90
46231;DHT22;31949;51.404;-0.038;2023-03-12T00:54:56;7.90;99.90
46231;DHT22;31949;51.404;-0.038;2023-03-12T00:57:24;7.90;99.90
46231;DHT22;31949;51.404;-0.038;2023-03-12T00:59:52;7.90;99.90
46231;DHT22;31949;51.404;-0.038;2023-03-12T01:02:19;7.90;99.90
46231;DHT22;31949;51.404;-0.038;2023-03-12T01:04:46;8.00;99.90
46231;DHT22;31949;51.404;-0.038;2023-03-12T01:07:13;7.90;99.90
46231;DHT22;31949;51.404;-0.038;2023-03-12T01:09:41;8.00;99.90
46231;DHT22;31949;51.404;-0.038;2023-03-12T01:12:08;8.00;99.90
46231;DHT22;31949;51.404;-0.038;2023-03-12T01:14:35;8.00;99.90
46231;DHT22;31949;51.404;-0.038;2023-03-12T01:17:02;8.10;99.90
46231;DHT22;31949;51.404;-0.038;2023-03-12T01:19:29;8.10;99.90
46231;DHT22;31949;51.404;-0.038;2023-03-12T01:21:56;8.20;99.90
46231;DHT22;31949;51.404;-0.038;2023-03-12T01:24:24;8.20;99.90
46231;DHT22;31949;51.404;-0.038;2023-03-12T01:26:51;8.20;99.90
46231;DHT22;31949;51.404;-0.038;2023-03-12T01:29:18;8.10;99.90
46231;DHT22;31949;51.404;-0.038;2023-03-12T01:31:46;8.10;99.90
46231;DHT22;31949;51.404;-0.038;2023-03-12T01:34:14;8.10;99.90
46231;DHT22;31949;51.404;-0.038;2023-03-12T01:36:41;8.20;99.90
46231;DHT22;31949;51.404;-0.038;2023-03-12T01:39:08;8.20;99.90
46231;DHT22;31949;51.404;-0.038;2023-03-12T01:41:36;8.20;99.90
46231;DHT22;31949;51.404;-0.038;2023-03-12T01:44:04;8.30;99.90
46231;DHT22;31949;51.404;-0.038;2023-03-12T01:46:38;8.40;99.90
46231;DHT22;31949;51.404;-0.038;2023-03-12T01:49:38;8.50;99.90
46231;DHT22;31949;51.404;-0.038;2023-03-12T01:52:08;8.60;99.90
46231;DHT22;31949;51.404;-0.038;2023-03-12T01:54:53;8.70;99.90
46231;DHT22;31949;51.404;-0.038;2023-03-12T01:57:33;8.60;99.90
46231;DHT22;31949;51.404;-0.038;2023-03-12T02:00:09;8.70;99.90
46231;DHT22;31949;51.404;-0.038;2023-03-12T02:02:42;8.80;99.90
46231;DHT22;31949;51.404;-0.038;2023-03-12T02:05:29;8.80;99.90
46231;DHT22;31949;51.404;-0.038;2023-03-12T02:07:58;8.90;99.90
46231;DHT22;31949;51.404;-0.038;2023-03-12T02:10:25;8.90;99.90
46231;DHT22;31949;51.404;-0.038;2023-03-12T02:12:53;9.00;99.90
46231;DHT22;31949;51.404;-0.038;2023-03-12T02:15:21;9.00;99.90
46231;DHT22;31949;51.404;-0.038;2023-03-12T02:17:48;9.10;99.90
46231;DHT22;31949;51.404;-0.038;2023-03-12T02:20:23;9.10;99.90
46231;DHT22;31949;51.404;-0.038;2023-03-12T02:23:03;9.20;99.90
46231;DHT22;31949;51.404;-0.038;2023-03-12T02:28:08;9.20;99.90
46231;DHT22;31949;51.404;-0.038;2023-03-12T02:30:36;9.30;99.90
46231;DHT22;31949;51.404;-0.038;2023-03-12T02:33:06;9.30;99.90
46231;DHT22;31949;51.404;-0.038;2023-03-12T02:35:34;9.30;99.90
46231;DHT22;31949;51.404;-0.038;2023-03-12T02:38:02;9.20;99.90
46231;DHT22;31949;51.404;-0.038;2023-03-12T02:40:36;9.30;99.90
46231;DHT22;31949;51.404;-0.038;2023-03-12T02:43:06;9.30;99.90
46231;DHT22;31949;51.404;-0.038;2023-03-12T02:45:35;9.30;99.90
46231;DHT22;31949;51.404;-0.038;2023-03-12T02:48:05;9.30;99.90
46231;DHT22;31949;51.404;-0.038;2023-03-12T02:50:33;9.30;99.90
46231;DHT22;31949;51.404;-0.038;2023-03-12T02:53:01;9.40;99.90
46231;DHT22;31949;51.404;-0.038;2023-03-12T02:55:28;9.40;99.90
46231;DHT22;31949;51.404;-0.038;2023-03-12T02:57:55;9.50;99.90
46231;DHT22;31949;51.404;-0.038;2023-03-12T03:00:23;9.40;99.90
46231;DHT22;31949;51.404;-0.038;2023-03-12T03:02:52;9.30;99.90
46231;DHT22;31949;51.404;-0.038;2023-03-12T03:05:19;9.30;99.90
46231;DHT22;31949;51.404;-0.038;2023-03-12T03:07:47;9.30;99.90
46231;DHT22;31949;51.404;-0.038;2023-03-12T03:10:15;9.30;99.90
46231;DHT22;31949;51.404;-0.038;2023-03-12T03:12:43;9.40;99.90
46231;DHT22;31949;51.404;-0.038;2023-03-12T03:15:10;9.30;99.90
46231;DHT22;31949;51.404;-0.038;2023-03-12T03:17:38;9.40;99.90
46231;DHT22;31949;51.404;-0.038;2023-03-12T03:20:06;9.40;99.90
46231;DHT22;31949;51.404;-0.038;2023-03-12T03:22:37;9.40;99.90
46231;DHT22;31949;51.404;-0.038;2023-03-12T03:25:07;9.40;99.90
46231;DHT22;31949;51.404;-0.038;2023-03-12T03:27:35;9.40;99.90
46231;DHT22;31949;51.404;-0.038;2023-03-12T03:30:03;9.40;99.90
46231;DHT22;31949;51.404;-0.038;2023-03-12T03:32:35;9.40;99.90
46231;DHT22;31949;51.404;-0.038;2023-03-12T03:35:04;9.30;99.90
46231;DHT22;31949;51.404;-0.038;2023-03-12T03:37:32;9.30;99.90
46231;DHT22;31949;51.404;-0.038;2023-03-12T03:39:59;9.30;99.90
46231;DHT22;31949;51.404;-0.038;2023-03-12T03:42:27;9.20;99.90
46231;DHT22;31949;51.404;-0.038;2023-03-12T03:44:54;9.30;99.90
46231;DHT22;31949;51.404;-0.038;2023-03-12T03:47:21;9.30;99.90
46231;DHT22;31949;51.404;-0.038;2023-03-12T03:49:48;9.30;99.90
46231;DHT22;31949;51.404;-0.038;2023-03-12T03:52:15;9.30;99.90
46231;DHT22;31949;51.404;-0.038;2023-03-12T03:54:43;9.30;99.90
46231;DHT22;31949;51.404;-0.038;2023-03-12T03:57:10;9.20;99.90
46231;DHT22;31949;51.404;-0.038;2023-03-12T03:59:39;9.20;99.90
46231;DHT22;31949;51.404;-0.038;2023-03-12T04:02:06;9.20;99.90
46231;DHT22;31949;51.404;-0.038;2023-03-12T04:04:37;9.30;99.90
46231;DHT22;31949;51.404;-0.038;2023-03-12T04:07:06;9.20;99.90
46231;DHT22;31949;51.404;-0.038;2023-03-12T04:09:33;9.10;99.90
46231;DHT22;31949;51.404;-0.038;2023-03-12T04:12:00;9.00;99.90
46231;DHT22;31949;51.404;-0.038;2023-03-12T04:14:28;8.90;99.90
46231;DHT22;31949;51.404;-0.038;2023-03-12T04:16:55;8.90;99.90
46231;DHT22;31949;51.404;-0.038;2023-03-12T04:19:22;8.90;99.90
46231;DHT22;31949;51.404;-0.038;2023-03-12T04:21:50;9.00;99.90
46231;DHT22;31949;51.404;-0.038;2023-03-12T04:24:17;8.90;99.90
46231;DHT22;31949;51.404;-0.038;2023-03-12T04:26:47;8.90;99.90
46231;DHT22;31949;51.404;-0.038;2023-03-12T04:29:15;8.90;99.90
46231;DHT22;31949;51.404;-0.038;2023-03-12T04:31:43;8.90;99.90
46231;DHT22;31949;51.404;-0.038;2023-03-12T04:34:10;8.90;99.90
46231;DHT22;31949;51.404;-0.038;2023-03-12T04:36:41;8.80;99.90
46231;DHT22;31949;51.404;-0.038;2023-03-12T04:39:08;8.80;99.90
46231;DHT22;31949;51.404;-0.038;2023-03-12T04:41:37;8.80;99.90
46231;DHT22;31949;51.404;-0.038;2023-03-12T04:44:11;8.70;99.90
46231;DHT22;31949;51.404;-0.038;2023-03-12T04:46:40;8.80;99.90
46231;DHT22;31949;51.404;-0.038;2023-03-12T04:49:09;8.80;99.90
46231;DHT22;31949;51.404;-0.038;2023-03-12T04:51:37;8.80;99.90
46231;DHT22;31949;51.404;-0.038;2023-03-12T04:54:06;8.80;99.90
46231;DHT22;31949;51.404;-0.038;2023-03-12T04:56:34;8.80;99.90
46231;DHT22;31949;51.404;-0.038;2023-03-12T04:59:02;8.80;99.90
46231;DHT22;31949;51.404;-0.038;2023-03-12T05:01:31;8.80;99.90
46231;DHT22;31949;51.404;-0.038;2023-03-12T05:04:02;8.80;99.90
46231;DHT22;31949;51.404;-0.038;2023-03-12T05:06:29;8.70;99.90
46231;DHT22;31949;51.404;-0.038;2023-03-12T05:08:57;8.80;99.90
46231;DHT22;31949;51.404;-0.038;2023-03-12T05:11:24;8.80;99.90
46231;DHT22;31949;51.404;-0.038;2023-03-12T05:13:52;8.80;99.90
46231;DHT22;31949;51.404;-0.038;2023-03-12T05:16:19;8.70;99.90
46231;DHT22;31949;51.404;-0.038;2023-03-12T05:18:47;8.70;99.90
46231;DHT22;31949;51.404;-0.038;2023-03-12T05:21:19;8.70;99.90
46231;DHT22;31949;51.404;-0.038;2023-03-12T05:23:50;8.70;99.90
46231;DHT22;31949;51.404;-0.038;2023-03-12T05:28:56;8.80;99.90
46231;DHT22;31949;51.404;-0.038;2023-03-12T05:31:23;8.80;99.90
46231;DHT22;31949;51.404;-0.038;2023-03-12T05:33:51;8.70;99.90
46231;DHT22;31949;51.404;-0.038;2023-03-12T05:36:20;8.70;99.90
46231;DHT22;31949;51.404;-0.038;2023-03-12T05:38:48;8.70;99.90
46231;DHT22;31949;51.404;-0.038;2023-03-12T05:41:22;8.70;99.90
46231;DHT22;31949;51.404;-0.038;2023-03-12T05:43:51;8.70;99.90
46231;DHT22;31949;51.404;-0.038;2023-03-12T05:46:19;8.70;99.90
46231;DHT22;31949;51.404;-0.038;2023-03-12T05:48:47;8.70;99.90
46231;DHT22;31949;51.404;-0.038;2023-03-12T05:51:15;8.70;99.90
46231;DHT22;31949;51.404;-0.038;2023-03-12T05:53:43;8.70;99.90
46231;DHT22;31949;51.404;-0.038;2023-03-12T05:56:13;8.70;99.90
46231;DHT22;31949;51.404;-0.038;2023-03-12T05:58:41;8.70;99.90
46231;DHT22;31949;51.404;-0.038;2023-03-12T06:01:29;8.70;99.90
46231;DHT22;31949;51.404;-0.038;2023-03-12T06:03:58;8.70;99.90
46231;DHT22;31949;51.404;-0.038;2023-03-12T06:06:26;8.70;99.90
46231;DHT22;31949;51.404;-0.038;2023-03-12T06:08:55;8.60;99.90
46231;DHT22;31949;51.404;-0.038;2023-03-12T06:11:22;8.60;99.90
46231;DHT22;31949;51.404;-0.038;2023-03-12T06:13:50;8.60;99.90
46231;DHT22;31949;51.404;-0.038;2023-03-12T06:16:19;8.60;99.90
46231;DHT22;31949;51.404;-0.038;2023-03-12T06:18:48;8.60;99.90
46231;DHT22;31949;51.404;-0.038;2023-03-12T06:21:21;8.60;99.90
46231;DHT22;31949;51.404;-0.038;2023-03-12T06:23:49;8.50;99.90
46231;DHT22;31949;51.404;-0.038;2023-03-12T06:26:22;8.50;99.90
46231;DHT22;31949;51.404;-0.038;2023-03-12T06:28:50;8.50;99.90
46231;DHT22;31949;51.404;-0.038;2023-03-12T06:31:19;8.50;99.90
46231;DHT22;31949;51.404;-0.038;2023-03-12T06:33:47;8.50;99.90
46231;DHT22;31949;51.404;-0.038;2023-03-12T06:36:14;8.60;99.90
46231;DHT22;31949;51.404;-0.038;2023-03-12T06:38:42;8.50;99.90
46231;DHT22;31949;51.404;-0.038;2023-03-12T06:41:15;8.60;99.90
46231;DHT22;31949;51.404;-0.038;2023-03-12T06:43:43;8.60;99.90
46231;DHT22;31949;51.404;-0.038;2023-03-12T06:46:12;8.60;99.90
46231;DHT22;31949;51.404;-0.038;2023-03-12T06:48:40;8.60;99.90
46231;DHT22;31949;51.404;-0.038;2023-03-12T06:51:09;8.50;99.90
46231;DHT22;31949;51.404;-0.038;2023-03-12T06:53:37;8.60;99.90
46231;DHT22;31949;51.404;-0.038;2023-03-12T06:56:08;8.60;99.90
46231;DHT22;31949;51.404;-0.038;2023-03-12T06:58:35;8.60;99.90
46231;DHT22;31949;51.404;-0.038;2023-03-12T07:01:03;8.60;99.90
46231;DHT22;31949;51.404;-0.038;2023-03-12T07:03:31;8.60;99.90
46231;DHT22;31949;51.404;-0.038;2023-03-12T07:05:58;8.60;99.90
46231;DHT22;31949;51.404;-0.038;2023-03-12T07:08:27;8.70;99.90
46231;DHT22;31949;51.404;-0.038;2023-03-12T07:10:58;8.70;99.90
46231;DHT22;31949;51.404;-0.038;2023-03-12T07:13:28;8.80;99.90
46231;DHT22;31949;51.404;-0.038;2023-03-12T07:15:55;8.80;99.90
46231;DHT22;31949;51.404;-0.038;2023-03-12T07:18:22;8.80;99.90
46231;DHT22;31949;51.404;-0.038;2023-03-12T07:20:50;8.80;99.90
46231;DHT22;31949;51.404;-0.038;2023-03-12T07:23:18;8.90;99.90
46231;DHT22;31949;51.404;-0.038;2023-03-12T07:25:46;8.90;99.90
46231;DHT22;31949;51.404;-0.038;2023-03-12T07:28:14;9.00;99.90
46231;DHT22;31949;51.404;-0.038;2023-03-12T07:30:42;9.10;99.90
46231;DHT22;31949;51.404;-0.038;2023-03-12T07:33:11;9.10;99.90
46231;DHT22;31949;51.404;-0.038;2023-03-12T07:35:38;9.20;99.90
46231;DHT22;31949;51.404;-0.038;2023-03-12T07:38:06;9.30;99.90
46231;DHT22;31949;51.404;-0.038;2023-03-12T07:40:35;9.40;99.90
46231;DHT22;31949;51.404;-0.038;2023-03-12T07:43:03;9.40;99.90
46231;DHT22;31949;51.404;-0.038;2023-03-12T07:45:34;9.40;99.90
46231;DHT22;31949;51.404;-0.038;2023-03-12T07:48:01;9.50;99.90
46231;DHT22;31949;51.404;-0.038;2023-03-12T07:50:28;9.50;99.90
46231;DHT22;31949;51.404;-0.038;2023-03-12T07:52:56;9.60;99.90
46231;DHT22;31949;51.404;-0.038;2023-03-12T07:55:23;9.70;99.90
46231;DHT22;31949;51.404;-0.038;2023-03-12T07:57:50;9.70;99.90
46231;DHT22;31949;51.404;-0.038;2023-03-12T08:00:18;9.70;99.90
46231;DHT22;31949;51.404;-0.038;2023-03-12T08:02:45;9.80;99.90
46231;DHT22;31949;51.404;-0.038;2023-03-12T08:05:13;9.90;99.90
46231;DHT22;31949;51.404;-0.038;2023-03-12T08:07:40;9.90;99.90
46231;DHT22;31949;51.404;-0.038;2023-03-12T08:10:09;9.90;99.90
46231;DHT22;31949;51.404;-0.038;2023-03-12T08:12:37;10.00;99.90
46231;DHT22;31949;51.404;-0.038;2023-03-12T08:15:05;10.00;99.90
46231;DHT22;31949;51.404;-0.038;2023-03-12T08:17:33;10.10;99.90
46231;DHT22;31949;51.404;-0.038;2023-03-12T08:20:00;10.20;99.90
46231;DHT22;31949;51.404;-0.038;2023-03-12T08:22:27;10.20;99.90
46231;DHT22;31949;51.404;-0.038;2023-03-12T08:24:54;10.20;99.90
46231;DHT22;31949;51.404;-0.038;2023-03-12T08:27:22;10.30;99.90
46231;DHT22;31949;51.404;-0.038;2023-03-12T08:29:49;10.40;99.90
46231;DHT22;31949;51.404;-0.038;2023-03-12T08:32:16;10.50;99.90
46231;DHT22;31949;51.404;-0.038;2023-03-12T08:34:44;10.50;99.90
46231;DHT22;31949;51.404;-0.038;2023-03-12T08:37:11;10.50;99.90
46231;DHT22;31949;51.404;-0.038;2023-03-12T08:39:38;10.60;99.90
46231;DHT22;31949;51.404;-0.038;2023-03-12T08:42:05;10.60;99.90
46231;DHT22;31949;51.404;-0.038;2023-03-12T08:44:33;10.70;99.90
46231;DHT22;31949;51.404;-0.038;2023-03-12T08:47:00;10.80;99.90
46231;DHT22;31949;51.404;-0.038;2023-03-12T08:49:28;10.80;99.90
46231;DHT22;31949;51.404;-0.038;2023-03-12T08:51:55;10.80;99.90
46231;DHT22;31949;51.404;-0.038;2023-03-12T08:54:22;10.90;99.90
46231;DHT22;31949;51.404;-0.038;2023-03-12T08:56:51;10.90;99.90
46231;DHT22;31949;51.404;-0.038;2023-03-12T08:59:19;11.10;99.90
46231;DHT22;31949;51.404;-0.038;2023-03-12T09:01:47;11.00;99.90
46231;DHT22;31949;51.404;-0.038;2023-03-12T09:04:14;11.20;99.90
46231;DHT22;31949;51.404;-0.038;2023-03-12T09:06:42;11.10;99.90
46231;DHT22;31949;51.404;-0.038;2023-03-12T09:09:09;11.20;99.90
46231;DHT22;31949;51.404;-0.038;2023-03-12T09:11:37;11.20;99.90
46231;DHT22;31949;51.404;-0.038;2023-03-12T09:14:08;11.20;99.90
46231;DHT22;31949;51.404;-0.038;2023-03-12T09:16:56;11.10;99.90
46231;DHT22;31949;51.404;-0.038;2023-03-12T09:19:24;11.10;99.90
46231;DHT22;31949;51.404;-0.038;2023-03-12T09:21:51;11.10;99.90
46231;DHT22;31949;51.404;-0.038;2023-03-12T09:24:18;11.10;99.90
46231;DHT22;31949;51.404;-0.038;2023-03-12T09:26:46;11.10;99.90
46231;DHT22;31949;51.404;-0.038;2023-03-12T09:29:13;11.10;99.90
46231;DHT22;31949;51.404;-0.038;2023-03-12T09:31:41;11.20;99.90
46231;DHT22;31949;51.404;-0.038;2023-03-12T09:34:08;11.10;99.90
46231;DHT22;31949;51.404;-0.038;2023-03-12T09:36:35;11.10;99.90
46231;DHT22;31949;51.404;-0.038;2023-03-12T09:39:02;11.10;99.90
46231;DHT22;31949;51.404;-0.038;2023-03-12T09:41:32;11.10;99.90
46231;DHT22;31949;51.404;-0.038;2023-03-12T09:46:47;11.10;99.90
46231;DHT22;31949;51.404;-0.038;2023-03-12T09:49:34;11.20;99.90
46231;DHT22;31949;51.404;-0.038;2023-03-12T09:52:29;11.20;99.90
46231;DHT22;31949;51.404;-0.038;2023-03-12T09:55:07;11.20;99.90
46231;DHT22;31949;51.404;-0.038;2023-03-12T09:57:37;11.20;99.90
46231;DHT22;31949;51.404;-0.038;2023-03-12T10:00:10;11.30;99.90
46231;DHT22;31949;51.404;-0.038;2023-03-12T10:02:43;11.40;99.90
46231;DHT22;31949;51.404;-0.038;2023-03-12T10:08:25;11.50;99.90
46231;DHT22;31949;51.404;-0.038;2023-03-12T10:23:06;11.60;99.90
46231;DHT22;31949;51.404;-0.038;2023-03-12T10:28:34;11.70;99.90
46231;DHT22;31949;51.404;-0.038;2023-03-12T10:31:01;11.70;99.90
46231;DHT22;31949;51.404;-0.038;2023-03-12T10:33:50;11.60;99.90
46231;DHT22;31949;51.404;-0.038;2023-03-12T10:36:35;11.70;99.90
46231;DHT22;31949;51.404;-0.038;2023-03-12T10:39:16;11.70;99.90
46231;DHT22;31949;51.404;-0.038;2023-03-12T10:41:45;11.70;99.90
46231;DHT22;31949;51.404;-0.038;2023-03-12T10:44:20;11.70;99.90
46231;DHT22;31949;51.404;-0.038;2023-03-12T10:47:02;11.80;99.90
46231;DHT22;31949;51.404;-0.038;2023-03-12T10:49:33;12.00;99.90
46231;DHT22;31949;51.404;-0.038;2023-03-12T10:52:15;12.10;99.90
46231;DHT22;31949;51.404;-0.038;2023-03-12T10:54:48;12.20;99.90
46231;DHT22;31949;51.404;-0.038;2023-03-12T10:57:16;12.20;99.90
46231;DHT22;31949;51.404;-0.038;2023-03-12T10:59:46;12.20;99.90
46231;DHT22;31949;51.404;-0.038;2023-03-12T11:02:30;12.30;99.90
46231;DHT22;31949;51.404;-0.038;2023-03-12T11:04:59;12.40;99.90
46231;DHT22;31949;51.404;-0.038;2023-03-12T11:07:29;12.50;99.90
46231;DHT22;31949;51.404;-0.038;2023-03-12T11:12:35;12.60;99.90
46231;DHT22;31949;51.404;-0.038;2023-03-12T11:17:47;12.80;99.90
46231;DHT22;31949;51.404;-0.038;2023-03-12T11:20:33;12.70;99.90
46231;DHT22;31949;51.404;-0.038;2023-03-12T11:23:16;12.80;99.90
46231;DHT22;31949;51.404;-0.038;2023-03-12T11:25:53;12.70;99.90
46231;DHT22;31949;51.404;-0.038;2023-03-12T11:28:24;12.70;99.90
46231;DHT22;31949;51.404;-0.038;2023-03-12T11:30:56;12.70;99.90
46231;DHT22;31949;51.404;-0.038;2023-03-12T11:33:25;12.80;99.90
46231;DHT22;31949;51.404;-0.038;2023-03-12T11:36:03;12.80;99.90
46231;DHT22;31949;51.404;-0.038;2023-03-12T11:38:45;12.80;99.90
46231;DHT22;31949;51.404;-0.038;2023-03-12T11:41:20;12.90;99.90
46231;DHT22;31949;51.404;-0.038;2023-03-12T11:46:51;13.00;99.90
46231;DHT22;31949;51.404;-0.038;2023-03-12T11:49:52;13.10;99.90
46231;DHT22;31949;51.404;-0.038;2023-03-12T11:52:50;13.20;99.90
46231;DHT22;31949;51.404;-0.038;2023-03-12T11:55:47;13.40;99.90
46231;DHT22;31949;51.404;-0.038;2023-03-12T11:58:44;13.50;99.90
46231;DHT22;31949;51.404;-0.038;2023-03-12T12:04:32;13.50;99.90
46231;DHT22;31949;51.404;-0.038;2023-03-12T12:12:14;13.60;99.90
46231;DHT22;31949;51.404;-0.038;2023-03-12T12:17:58;13.70;99.90
46231;DHT22;31949;51.404;-0.038;2023-03-12T12:23:38;13.70;99.90
46231;DHT22;31949;51.404;-0.038;2023-03-12T12:26:12;13.80;99.90
46231;DHT22;31949;51.404;-0.038;2023-03-12T12:34:14;14.10;99.90
46231;DHT22;31949;51.404;-0.038;2023-03-12T12:39:35;14.20;99.90
46231;DHT22;31949;51.404;-0.038;2023-03-12T12:42:08;14.10;99.90
46231;DHT22;31949;51.404;-0.038;2023-03-12T12:44:42;14.30;99.90
46231;DHT22;31949;51.404;-0.038;2023-03-12T12:47:13;14.40;99.90
46231;DHT22;31949;51.404;-0.038;2023-03-12T12:49:52;14.40;99.90
46231;DHT22;31949;51.404;-0.038;2023-03-12T12:52:21;14.40;99.90
46231;DHT22;31949;51.404;-0.038;2023-03-12T12:57:36;14.60;99.90
46231;DHT22;31949;51.404;-0.038;2023-03-12T13:02:44;14.60;99.90
46231;DHT22;31949;51.404;-0.038;2023-03-12T13:08:04;14.40;99.90
46231;DHT22;31949;51.404;-0.038;2023-03-12T13:13:03;14.40;99.90
46231;DHT22;31949;51.404;-0.038;2023-03-12T13:15:32;14.50;99.90
46231;DHT22;31949;51.404;-0.038;2023-03-12T13:18:17;14.50;99.90
46231;DHT22;31949;51.404;-0.038;2023-03-12T13:23:42;14.70;99.90
46231;DHT22;31949;51.404;-0.038;2023-03-12T13:26:26;14.80;99.90
46231;DHT22;31949;51.404;-0.038;2023-03-12T13:29:00;14.80;99.90
46231;DHT22;31949;51.404;-0.038;2023-03-12T13:31:40;14.80;99.90
46231;DHT22;31949;51.404;-0.038;2023-03-12T13:36:46;14.80;99.90
46231;DHT22;31949;51.404;-0.038;2023-03-12T13:39:26;14.80;99.90
46231;DHT22;31949;51.404;-0.038;2023-03-12T13:41:55;14.70;99.90
46231;DHT22;31949;51.404;-0.038;2023-03-12T13:50:00;14.60;99.90
46231;DHT22;31949;51.404;-0.038;2023-03-12T13:57:43;14.50;99.90
46231;DHT22;31949;51.404;-0.038;2023-03-12T14:00:30;14.50;99.90
46231;DHT22;31949;51.404;-0.038;2023-03-12T14:03:15;14.50;99.90
46231;DHT22;31949;51.404;-0.038;2023-03-12T14:05:51;14.50;99.90
46231;DHT22;31949;51.404;-0.038;2023-03-12T14:19:15;14.80;99.90
46231;DHT22;31949;51.404;-0.038;2023-03-12T14:21:44;14.80;99.90
46231;DHT22;31949;51.404;-0.038;2023-03-12T14:24:22;14.70;99.90
46231;DHT22;31949;51.404;-0.038;2023-03-12T14:26:51;14.80;99.90
46231;DHT22;31949;51.404;-0.038;2023-03-12T14:29:35;14.60;99.90
46231;DHT22;31949;51.404;-0.038;2023-03-12T14:32:11;14.30;99.90
46231;DHT22;31949;51.404;-0.038;2023-03-12T14:35:16;14.10;99.90
46231;DHT22;31949;51.404;-0.038;2023-03-12T14:40:42;13.90;99.90
46231;DHT22;31949;51.404;-0.038;2023-03-12T14:45:48;13.80;99.90
46231;DHT22;31949;51.404;-0.038;2023-03-12T14:48:20;13.70;99.90
46231;DHT22;31949;51.404;-0.038;2023-03-12T14:50:47;13.60;99.90
46231;DHT22;31949;51.404;-0.038;2023-03-12T14:53:22;13.40;99.90
46231;DHT22;31949;51.404;-0.038;2023-03-12T14:56:04;13.30;99.90
46231;DHT22;31949;51.404;-0.038;2023-03-12T14:58:33;13.20;99.90
46231;DHT22;31949;51.404;-0.038;2023-03-12T15:01:04;13.20;99.90
46231;DHT22;31949;51.404;-0.038;2023-03-12T15:03:40;13.20;99.90
46231;DHT22;31949;51.404;-0.038;2023-03-12T15:06:17;13.00;99.90
46231;DHT22;31949;51.404;-0.038;2023-03-12T15:08:45;13.10;99.90
46231;DHT22;31949;51.404;-0.038;2023-03-12T15:11:12;13.00;99.90
46231;DHT22;31949;51.404;-0.038;2023-03-12T15:13:40;13.00;99.90
46231;DHT22;31949;51.404;-0.038;2023-03-12T15:16:07;13.00;99.90
46231;DHT22;31949;51.404;-0.038;2023-03-12T15:18:35;12.90;99.90
46231;DHT22;31949;51.404;-0.038;2023-03-12T15:21:03;12.90;99.90
46231;DHT22;31949;51.404;-0.038;2023-03-12T15:23:33;12.90;99.90
46231;DHT22;31949;51.404;-0.038;2023-03-12T15:31:25;12.70;99.90
46231;DHT22;31949;51.404;-0.038;2023-03-12T15:34:04;12.80;99.90
46231;DHT22;31949;51.404;-0.038;2023-03-12T15:36:33;12.70;99.90
46231;DHT22;31949;51.404;-0.038;2023-03-12T15:39:11;12.70;99.90
46231;DHT22;31949;51.404;-0.038;2023-03-12T15:41:44;12.70;99.90
46231;DHT22;31949;51.404;-0.038;2023-03-12T15:44:23;12.70;99.90
46231;DHT22;31949;51.404;-0.038;2023-03-12T15:46:54;12.70;99.90
46231;DHT22;31949;51.404;-0.038;2023-03-12T15:49:26;12.70;99.90
46231;DHT22;31949;51.404;-0.038;2023-03-12T15:54:27;12.50;99.90
46231;DHT22;31949;51.404;-0.038;2023-03-12T15:57:19;12.40;99.90
46231;DHT22;31949;51.404;-0.038;2023-03-12T16:03:00;12.50;99.90
46231;DHT22;31949;51.404;-0.038;2023-03-12T16:05:37;12.40;99.90
46231;DHT22;31949;51.404;-0.038;2023-03-12T16:10:48;12.30;99.90
46231;DHT22;31949;51.404;-0.038;2023-03-12T16:13:17;12.30;99.90
46231;DHT22;31949;51.404;-0.038;2023-03-12T16:15:46;12.30;99.90
46231;DHT22;31949;51.404;-0.038;2023-03-12T16:18:16;12.30;99.90
46231;DHT22;31949;51.404;-0.038;2023-03-12T16:20:44;12.30;99.90
46231;DHT22;31949;51.404;-0.038;2023-03-12T16:23:12;12.40;99.90
46231;DHT22;31949;51.404;-0.038;2023-03-12T16:25:44;12.30;99.90
46231;DHT22;31949;51.404;-0.038;2023-03-12T16:28:14;12.40;99.90
46231;DHT22;31949;51.404;-0.038;2023-03-12T16:30:42;12.40;99.90
46231;DHT22;31949;51.404;-0.038;2023-03-12T16:33:14;12.30;99.90
46231;DHT22;31949;51.404;-0.038;2023-03-12T16:35:42;12.30;99.90
46231;DHT22;31949;51.404;-0.038;2023-03-12T16:38:09;12.20;99.90
46231;DHT22;31949;51.404;-0.038;2023-03-12T16:40:39;12.30;99.90
46231;DHT22;31949;51.404;-0.038;2023-03-12T16:43:20;12.20;99.90
46231;DHT22;31949;51.404;-0.038;2023-03-12T16:45:50;12.20;99.90
46231;DHT22;31949;51.404;-0.038;2023-03-12T16:48:20;12.20;99.90
46231;DHT22;31949;51.404;-0.038;2023-03-12T16:50:56;12.20;99.90
46231;DHT22;31949;51.404;-0.038;2023-03-12T16:53:24;12.10;99.90
46231;DHT22;31949;51.404;-0.038;2023-03-12T16:55:58;12.10;99.90
46231;DHT22;31949;51.404;-0.038;2023-03-12T16:58:28;12.00;99.90
46231;DHT22;31949;51.404;-0.038;2023-03-12T17:00:56;12.00;99.90
46231;DHT22;31949;51.404;-0.038;2023-03-12T17:03:31;12.00;99.90
46231;DHT22;31949;51.404;-0.038;2023-03-12T17:06:02;12.00;99.90
46231;DHT22;31949;51.404;-0.038;2023-03-12T17:08:29;12.00;99.90
46231;DHT22;31949;51.404;-0.038;2023-03-12T17:10:57;11.90;99.90
46231;DHT22;31949;51.404;-0.038;2023-03-12T17:13:27;11.90;99.90
46231;DHT22;31949;51.404;-0.038;2023-03-12T17:15:55;11.80;99.90
46231;DHT22;31949;51.404;-0.038;2023-03-12T17:18:23;11.70;99.90
46231;DHT22;31949;51.404;-0.038;2023-03-12T17:20:50;11.80;99.90
46231;DHT22;31949;51.404;-0.038;2023-03-12T17:23:18;11.80;99.90
46231;DHT22;31949;51.404;-0.038;2023-03-12T17:25:45;11.70;99.90
46231;DHT22;31949;51.404;-0.038;2023-03-12T17:28:13;11.60;99.90
46231;DHT22;31949;51.404;-0.038;2023-03-12T17:30:42;11.60;99.90
46231;DHT22;31949;51.404;-0.038;2023-03-12T17:33:14;11.50;99.90
46231;DHT22;31949;51.404;-0.038;2023-03-12T17:35:42;11.50;99.90
46231;DHT22;31949;51.404;-0.038;2023-03-12T17:38:11;11.50;99.90